createdAt,value
2018-05-21T00:00:41.997Z,17.79
2018-05-21T00:01:51.815Z,17.71
2018-05-21T00:03:01.889Z,17.63
2018-05-21T00:04:11.977Z,17.69
2018-05-21T00:05:22.049Z,17.69
2018-05-21T00:06:31.866Z,17.73
2018-05-21T00:07:41.972Z,17.73
2018-05-21T00:08:51.786Z,17.68
2018-05-21T00:10:01.606Z,17.71
2018-05-21T00:11:11.693Z,17.66
2018-05-21T00:12:21.234Z,17.68
2018-05-21T00:13:30.275Z,17.73
2018-05-21T00:14:40.366Z,17.65
2018-05-21T00:15:50.455Z,17.65
2018-05-21T00:17:00.548Z,17.63
2018-05-21T00:18:10.677Z,17.55
2018-05-21T00:19:20.745Z,17.5
2018-05-21T00:20:30.833Z,17.55
2018-05-21T00:21:40.953Z,17.55
2018-05-21T00:22:51.051Z,17.57
2018-05-21T00:24:01.138Z,17.5
2018-05-21T00:25:11.453Z,17.49
2018-05-21T00:26:21.539Z,17.47
2018-05-21T00:27:31.612Z,17.45
2018-05-21T00:28:41.443Z,17.49
2018-05-21T00:29:51.260Z,17.45
2018-05-21T00:31:01.352Z,17.42
2018-05-21T00:32:11.428Z,17.43
2018-05-21T00:33:21.510Z,17.42
2018-05-21T00:34:31.575Z,17.45
2018-05-21T00:35:41.374Z,17.42
2018-05-21T00:36:51.426Z,17.42
2018-05-21T00:38:01.508Z,17.35
2018-05-21T00:39:11.651Z,17.32
2018-05-21T00:40:21.476Z,17.31
2018-05-21T00:41:31.543Z,17.31
2018-05-21T00:42:41.638Z,17.36
2018-05-21T00:43:51.775Z,17.28
2018-05-21T00:45:01.683Z,17.32
2018-05-21T00:46:11.503Z,17.28
2018-05-21T00:47:21.636Z,17.31
2018-05-21T00:48:31.747Z,17.38
2018-05-21T00:49:41.825Z,17.35
2018-05-21T00:50:51.952Z,17.32
2018-05-21T00:52:01.746Z,17.4
2018-05-21T00:53:11.563Z,17.43
2018-05-21T00:54:21.118Z,17.42
2018-05-21T00:55:31.643Z,17.42
2018-05-21T00:56:41.906Z,17.42
2018-05-21T00:57:51.979Z,17.46
2018-05-21T00:59:01.818Z,17.46
2018-05-21T01:00:12.256Z,17.45
2018-05-21T01:01:22.433Z,17.46
2018-05-21T01:02:32.526Z,17.43
2018-05-21T01:03:42.603Z,17.38
2018-05-21T01:04:52.478Z,17.38
2018-05-21T01:06:02.565Z,17.35
2018-05-21T01:07:12.677Z,17.35
2018-05-21T01:08:22.497Z,17.31
2018-05-21T01:09:32.371Z,17.36
2018-05-21T01:10:42.491Z,17.31
2018-05-21T01:11:52.572Z,17.31
2018-05-21T01:13:02.659Z,17.35
2018-05-21T01:14:12.737Z,17.22
2018-05-21T01:15:22.574Z,17.24
2018-05-21T01:16:32.378Z,17.24
2018-05-21T01:17:42.503Z,17.2
2018-05-21T01:18:52.584Z,17.13
2018-05-21T01:20:03.013Z,17.13
2018-05-21T01:21:13.685Z,17.09
2018-05-21T01:22:23.549Z,17.05
2018-05-21T01:23:33.866Z,17.12
2018-05-21T01:24:44.280Z,16.91
2018-05-21T01:25:54.103Z,16.9
2018-05-21T01:27:04.186Z,16.97
2018-05-21T01:28:14.001Z,16.95
2018-05-21T01:29:24.061Z,16.9
2018-05-21T01:30:34.163Z,16.88
2018-05-21T01:31:44.295Z,16.88
2018-05-21T01:32:54.136Z,16.94
2018-05-21T01:34:04.211Z,16.84
2018-05-21T01:35:14.292Z,16.9
2018-05-21T01:36:24.100Z,16.9
2018-05-21T01:37:34.183Z,16.77
2018-05-21T01:38:44.006Z,16.72
2018-05-21T01:39:53.824Z,16.8
2018-05-21T01:41:03.952Z,16.72
2018-05-21T01:42:14.032Z,16.76
2018-05-21T01:43:24.104Z,16.63
2018-05-21T01:44:34.256Z,16.63
2018-05-21T01:45:44.054Z,16.69
2018-05-21T01:46:54.136Z,16.69
2018-05-21T01:48:03.971Z,16.63
2018-05-21T01:49:14.122Z,16.7
2018-05-21T01:50:24.191Z,16.74
2018-05-21T01:51:34.263Z,16.67
2018-05-21T01:52:44.329Z,16.66
2018-05-21T01:53:53.877Z,16.65
2018-05-21T01:55:04.009Z,16.72
2018-05-21T01:56:13.840Z,16.7
2018-05-21T01:57:23.905Z,16.69
2018-05-21T01:58:34.001Z,16.74
2018-05-21T01:59:44.111Z,16.67
2018-05-21T02:00:54.281Z,16.63
2018-05-21T02:02:04.357Z,16.74
2018-05-21T02:03:14.427Z,16.69
2018-05-21T02:04:24.728Z,16.66
2018-05-21T02:05:34.553Z,16.76
2018-05-21T02:06:44.688Z,16.72
2018-05-21T02:07:54.811Z,16.73
2018-05-21T02:09:04.642Z,16.66
2018-05-21T02:10:14.712Z,16.67
2018-05-21T02:11:24.510Z,16.65
2018-05-21T02:12:33.820Z,16.7
2018-05-21T02:13:43.924Z,16.65
2018-05-21T02:14:53.996Z,16.7
2018-05-21T02:16:03.560Z,16.67
2018-05-21T02:17:13.630Z,16.77
2018-05-21T02:18:23.695Z,16.81
2018-05-21T02:19:33.772Z,16.77
2018-05-21T02:20:43.860Z,16.81
2018-05-21T02:21:54.042Z,16.81
2018-05-21T02:23:03.844Z,16.91
2018-05-21T02:24:13.459Z,16.85
2018-05-21T02:25:23.557Z,16.82
2018-05-21T02:26:33.577Z,16.9
2018-05-21T02:27:43.696Z,16.84
2018-05-21T02:28:53.783Z,16.84
2018-05-21T02:30:03.933Z,16.81
2018-05-21T02:31:14.048Z,16.81
2018-05-21T02:32:24.145Z,16.67
2018-05-21T02:33:34.236Z,16.74
2018-05-21T02:34:44.050Z,16.76
2018-05-21T02:35:54.174Z,16.69
2018-05-21T02:37:04.266Z,16.65
2018-05-21T02:38:14.097Z,16.69
2018-05-21T02:39:24.173Z,16.66
2018-05-21T02:40:34.266Z,16.69
2018-05-21T02:41:44.451Z,16.63
2018-05-21T02:42:54.272Z,16.58
2018-05-21T02:44:04.372Z,16.54
2018-05-21T02:45:14.437Z,16.54
2018-05-21T02:46:23.988Z,16.67
2018-05-21T02:47:34.068Z,16.55
2018-05-21T02:48:43.621Z,16.62
2018-05-21T02:49:53.439Z,16.66
2018-05-21T02:51:03.531Z,16.58
2018-05-21T02:52:13.591Z,16.54
2018-05-21T02:53:23.670Z,16.58
2018-05-21T02:54:33.731Z,16.57
2018-05-21T02:55:43.808Z,16.57
2018-05-21T02:56:53.870Z,16.44
2018-05-21T02:58:03.959Z,16.44
2018-05-21T02:59:14.029Z,16.49
2018-05-21T03:00:24.110Z,16.42
2018-05-21T03:01:34.182Z,16.47
2018-05-21T03:02:43.986Z,16.47
2018-05-21T03:34:38.804Z,13.76
2018-05-21T03:35:48.657Z,13.72
2018-05-21T03:36:58.460Z,13.69
2018-05-21T03:38:08.604Z,13.63
2018-05-21T03:39:18.671Z,13.76
2018-05-21T03:40:28.274Z,13.78
2018-05-21T03:41:38.331Z,13.94
2018-05-21T03:42:48.205Z,14.03
2018-05-21T03:43:58.278Z,14.08
2018-05-21T03:45:08.358Z,14.19
2018-05-21T03:46:18.480Z,14.41
2018-05-21T03:47:28.536Z,14.52
2018-05-21T03:48:38.601Z,14.57
2018-05-21T03:49:48.666Z,14.66
2018-05-21T03:50:58.484Z,14.86
2018-05-21T03:52:08.595Z,14.98
2018-05-21T03:53:18.729Z,15.1
2018-05-21T03:54:28.814Z,15.23
2018-05-21T03:55:38.881Z,15.31
2018-05-21T03:56:48.437Z,15.43
2018-05-21T03:57:58.565Z,15.59
2018-05-21T03:59:08.635Z,15.67
2018-05-21T04:00:18.702Z,15.74
2018-05-21T04:01:28.256Z,15.83
2018-05-21T04:02:38.057Z,15.83
2018-05-21T04:03:48.197Z,15.91
2018-05-21T04:04:58.296Z,16.07
2018-05-21T04:06:08.101Z,16.14
2018-05-21T04:07:18.188Z,16.25
2018-05-21T04:08:28.069Z,16.36
2018-05-21T04:09:37.869Z,16.32
2018-05-21T04:10:47.410Z,16.45
2018-05-21T04:11:57.508Z,16.44
2018-05-21T04:13:07.814Z,16.55
2018-05-21T04:14:17.625Z,16.57
2018-05-21T04:15:27.706Z,16.73
2018-05-21T04:16:37.786Z,16.87
2018-05-21T04:17:47.850Z,16.92
2018-05-21T04:18:58.145Z,17.07
2018-05-21T04:20:07.955Z,17.17
2018-05-21T04:21:17.771Z,17.1
2018-05-21T04:22:27.839Z,17.28
2018-05-21T04:23:37.928Z,17.3
2018-05-21T04:24:47.995Z,17.35
2018-05-21T04:25:57.828Z,17.39
2018-05-21T04:27:07.905Z,17.4
2018-05-21T04:28:17.987Z,17.49
2018-05-21T04:29:28.091Z,17.52
2018-05-21T04:30:37.655Z,17.62
2018-05-21T04:31:47.463Z,17.71
2018-05-21T04:32:57.629Z,17.73
2018-05-21T04:34:07.706Z,17.79
2018-05-21T04:35:17.526Z,17.81
2018-05-21T04:36:27.530Z,17.86
2018-05-21T04:37:37.831Z,17.94
2018-05-21T04:38:47.641Z,18.01
2018-05-21T04:39:57.713Z,18.05
2018-05-21T04:41:07.781Z,18.05
2018-05-21T04:42:17.884Z,18.13
2018-05-21T04:43:27.702Z,18.16
2018-05-21T04:44:37.559Z,18.17
2018-05-21T04:45:47.372Z,18.34
2018-05-21T04:46:57.463Z,18.19
2018-05-21T04:48:07.285Z,18.34
2018-05-21T04:49:17.378Z,18.29
2018-05-21T04:50:27.502Z,18.5
2018-05-21T04:51:37.320Z,18.5
2018-05-21T04:52:47.146Z,18.56
2018-05-21T04:53:57.224Z,18.63
2018-05-21T04:55:07.043Z,18.68
2018-05-21T04:56:16.952Z,18.81
2018-05-21T04:57:26.776Z,18.84
2018-05-21T04:58:36.667Z,18.94
2018-05-21T04:59:46.505Z,18.94
2018-05-21T05:00:56.312Z,18.99
2018-05-21T05:02:06.432Z,19.1
2018-05-21T05:03:16.511Z,19.12
2018-05-21T05:04:26.588Z,19.24
2018-05-21T05:05:36.148Z,19.38
2018-05-21T05:06:46.218Z,19.45
2018-05-21T05:07:56.284Z,19.52
2018-05-21T05:09:06.359Z,19.5
2018-05-21T05:10:16.153Z,19.67
2018-05-21T05:11:26.235Z,19.61
2018-05-21T05:12:36.305Z,19.79
2018-05-21T05:13:46.403Z,19.85
2018-05-21T05:14:56.497Z,19.97
2018-05-21T05:16:06.688Z,20.01
2018-05-21T05:17:16.783Z,20.11
2018-05-21T05:18:26.594Z,20.19
2018-05-21T05:19:36.672Z,20.4
2018-05-21T05:20:46.772Z,20.46
2018-05-21T05:21:56.841Z,20.66
2018-05-21T05:23:06.653Z,20.81
2018-05-21T05:24:16.740Z,20.91
2018-05-21T05:25:26.836Z,21.19
2018-05-21T05:26:36.845Z,21.36
2018-05-21T05:27:46.523Z,22.11
2018-05-21T05:28:56.335Z,22.97
2018-05-21T05:30:06.167Z,23.25
2018-05-21T05:31:15.988Z,23.19
2018-05-21T05:32:26.081Z,23.24
2018-05-21T05:33:35.916Z,23.57
2018-05-21T05:34:45.997Z,23.57
2018-05-21T05:35:56.187Z,23.81
2018-05-21T05:37:06.421Z,24.36
2018-05-21T05:38:16.504Z,24.11
2018-05-21T05:39:26.571Z,23.89
2018-05-21T05:40:36.378Z,23.71
2018-05-21T05:41:46.195Z,23.79
2018-05-21T05:42:56.016Z,23.66
2018-05-21T05:44:06.081Z,23.75
2018-05-21T05:45:15.910Z,23.79
2018-05-21T05:46:25.726Z,23.78
2018-05-21T05:47:35.809Z,23.85
2018-05-21T05:48:46.018Z,23.85
2018-05-21T05:49:56.240Z,23.78
2018-05-21T05:51:06.321Z,23.75
2018-05-21T05:52:16.401Z,23.7
2018-05-21T05:53:26.418Z,23.7
2018-05-21T05:54:36.499Z,23.66
2018-05-21T05:55:46.571Z,23.59
2018-05-21T05:56:56.677Z,23.48
2018-05-21T05:58:06.755Z,23.45
2018-05-21T05:59:16.834Z,23.35
2018-05-21T06:00:26.956Z,23.26
2018-05-21T06:01:37.049Z,23.24
2018-05-21T06:02:47.129Z,23.22
2018-05-21T06:03:56.947Z,23.24
2018-05-21T06:05:06.756Z,23.25
2018-05-21T06:06:16.878Z,23.26
2018-05-21T06:07:26.981Z,23.37
2018-05-21T06:08:36.789Z,23.62
2018-05-21T06:09:46.602Z,23.67
2018-05-21T06:10:56.677Z,23.78
2018-05-21T06:12:06.806Z,23.85
2018-05-21T06:13:16.960Z,24.09
2018-05-21T06:14:27.035Z,24.46
2018-05-21T06:15:37.115Z,24.66
2018-05-21T06:16:47.197Z,24.85
2018-05-21T06:17:57.329Z,24.86
2018-05-21T06:19:07.435Z,25
2018-05-21T06:20:17.277Z,25.14
2018-05-21T06:21:27.098Z,25.3
2018-05-21T06:22:36.694Z,25.33
2018-05-21T06:23:46.814Z,25.37
2018-05-21T06:24:56.895Z,25.34
2018-05-21T06:26:07.183Z,25.45
2018-05-21T06:27:17.270Z,25.71
2018-05-21T06:28:27.374Z,26.56
2018-05-21T06:29:37.524Z,27.11
2018-05-21T06:30:47.592Z,27.24
2018-05-21T06:31:57.663Z,27.83
2018-05-21T06:33:07.742Z,28.41
2018-05-21T06:34:18.147Z,28.86
2018-05-21T06:35:28.750Z,28.94
2018-05-21T06:36:39.052Z,28.83
2018-05-21T06:37:49.142Z,29.13
2018-05-21T06:38:59.465Z,29.13
2018-05-21T06:40:09.534Z,28.95
2018-05-21T06:41:19.388Z,28.88
2018-05-21T06:42:29.492Z,28.53
2018-05-21T06:43:39.587Z,28.36
2018-05-21T06:44:49.408Z,28.28
2018-05-21T06:45:59.492Z,28.12
2018-05-21T06:47:09.338Z,27.96
2018-05-21T06:48:19.420Z,27.98
2018-05-21T06:49:29.533Z,27.9
2018-05-21T06:50:39.083Z,27.94
2018-05-21T06:51:48.914Z,27.98
2018-05-21T06:52:58.750Z,27.83
2018-05-21T06:54:08.847Z,27.72
2018-05-21T06:55:18.924Z,27.65
2018-05-21T06:56:28.746Z,27.49
2018-05-21T06:57:38.821Z,27.45
2018-05-21T06:58:48.709Z,27.27
2018-05-21T06:59:58.894Z,27.15
2018-05-21T07:01:08.964Z,27.08
2018-05-21T07:02:18.798Z,26.97
2018-05-21T07:03:28.680Z,26.87
2018-05-21T07:04:38.757Z,26.69
2018-05-21T07:05:48.841Z,26.47
2018-05-21T07:06:58.927Z,26.35
2018-05-21T07:08:09.345Z,26.15
2018-05-21T07:09:19.423Z,26.06
2018-05-21T07:10:29.511Z,25.89
2018-05-21T07:11:39.584Z,25.91
2018-05-21T07:12:49.431Z,25.82
2018-05-21T07:13:59.530Z,25.64
2018-05-21T07:15:09.362Z,25.62
2018-05-21T07:16:19.443Z,25.54
2018-05-21T07:17:29.522Z,25.59
2018-05-21T07:18:39.342Z,25.6
2018-05-21T07:19:49.147Z,25.66
2018-05-21T07:20:59.299Z,25.6
2018-05-21T07:22:09.448Z,25.62
2018-05-21T07:23:19.270Z,25.6
2018-05-21T07:24:29.519Z,25.7
2018-05-21T07:25:39.841Z,25.59
2018-05-21T07:26:49.664Z,25.57
2018-05-21T07:27:59.539Z,25.59
2018-05-21T07:29:09.639Z,25.56
2018-05-21T07:30:19.717Z,25.56
2018-05-21T07:31:29.623Z,25.62
2018-05-21T07:32:39.829Z,25.67
2018-05-21T07:33:49.976Z,25.59
2018-05-21T07:34:59.798Z,25.69
2018-05-21T07:36:09.878Z,25.71
2018-05-21T07:37:19.724Z,25.7
2018-05-21T07:38:29.574Z,25.85
2018-05-21T07:39:39.719Z,25.82
2018-05-21T07:40:49.623Z,25.71
2018-05-21T07:41:59.705Z,25.74
2018-05-21T07:43:09.777Z,25.84
2018-05-21T07:44:19.892Z,25.96
2018-05-21T07:45:30.015Z,25.93
2018-05-21T07:46:39.568Z,26.2
2018-05-21T07:47:49.382Z,26.15
2018-05-21T07:48:59.461Z,25.82
2018-05-21T07:50:09.300Z,25.71
2018-05-21T07:51:19.556Z,25.63
2018-05-21T07:52:29.719Z,25.62
2018-05-21T07:53:39.812Z,25.79
2018-05-21T07:54:49.895Z,25.84
2018-05-21T07:55:59.917Z,25.82
2018-05-21T07:57:10.001Z,25.99
2018-05-21T07:58:19.710Z,26
2018-05-21T07:59:29.695Z,26.07
2018-05-21T08:00:39.788Z,26.19
2018-05-21T08:01:49.873Z,26.15
2018-05-21T08:02:59.697Z,26.19
2018-05-21T08:04:09.788Z,26.03
2018-05-21T08:05:19.664Z,26.01
2018-05-21T08:06:29.990Z,26.04
2018-05-21T08:07:40.082Z,26.03
2018-05-21T08:08:49.679Z,26.03
2018-05-21T08:09:59.782Z,26
2018-05-21T08:11:09.869Z,26.11
2018-05-21T08:12:19.968Z,26.07
2018-05-21T08:13:30.070Z,26.06
2018-05-21T08:14:40.558Z,26.06
2018-05-21T08:15:51.082Z,26.17
2018-05-21T08:17:01.182Z,26.16
2018-05-21T08:18:11.024Z,26.17
2018-05-21T08:19:21.126Z,26.24
2018-05-21T08:20:31.222Z,26.3
2018-05-21T08:21:41.320Z,26.35
2018-05-21T08:22:51.401Z,26.26
2018-05-21T08:24:01.231Z,26.3
2018-05-21T08:25:11.062Z,26.3
2018-05-21T08:26:20.949Z,26.34
2018-05-21T08:27:31.062Z,26.45
2018-05-21T08:28:41.167Z,26.45
2018-05-21T08:29:51.286Z,26.3
2018-05-21T08:31:01.145Z,26.44
2018-05-21T08:32:11.251Z,26.47
2018-05-21T08:33:21.091Z,26.57
2018-05-21T08:34:30.676Z,26.64
2018-05-21T08:35:40.783Z,26.68
2018-05-21T08:36:50.875Z,26.57
2018-05-21T08:38:00.974Z,26.6
2018-05-21T08:39:11.087Z,26.61
2018-05-21T08:40:21.197Z,26.63
2018-05-21T08:41:31.304Z,26.69
2018-05-21T08:42:41.577Z,26.6
2018-05-21T08:43:51.875Z,26.64
2018-05-21T08:45:01.729Z,26.69
2018-05-21T08:46:11.846Z,26.69
2018-05-21T08:47:21.940Z,26.71
2018-05-21T08:48:32.379Z,26.78
2018-05-21T08:49:42.958Z,26.86
2018-05-21T08:50:52.778Z,26.96
2018-05-21T08:52:02.877Z,26.96
2018-05-21T08:53:12.698Z,26.97
2018-05-21T08:54:22.883Z,26.97
2018-05-21T08:55:33.025Z,26.91
2018-05-21T08:56:43.230Z,26.97
2018-05-21T08:57:53.327Z,26.9
2018-05-21T08:59:03.458Z,26.96
2018-05-21T09:00:13.628Z,26.99
2018-05-21T09:01:23.776Z,26.96
2018-05-21T09:02:33.890Z,26.89
2018-05-21T09:03:43.968Z,26.82
2018-05-21T09:04:54.032Z,26.86
2018-05-21T09:06:04.130Z,26.72
2018-05-21T09:07:14.264Z,26.75
2018-05-21T09:08:24.393Z,26.76
2018-05-21T09:09:34.512Z,26.75
2018-05-21T09:10:44.086Z,26.82
2018-05-21T09:11:54.169Z,26.78
2018-05-21T09:13:04.305Z,26.9
2018-05-21T09:14:14.150Z,26.82
2018-05-21T09:15:23.979Z,26.84
2018-05-21T09:16:33.917Z,27
2018-05-21T09:17:44.276Z,27.05
2018-05-21T09:18:55.178Z,26.96
2018-05-21T09:20:05.270Z,26.94
2018-05-21T09:21:15.351Z,26.94
2018-05-21T09:22:25.170Z,27.06
2018-05-21T09:23:35.286Z,27.08
2018-05-21T09:24:45.461Z,27.11
2018-05-21T09:25:55.020Z,27.11
2018-05-21T09:27:05.281Z,27.16
2018-05-21T09:28:15.116Z,27.21
2018-05-21T09:29:24.989Z,27.18
2018-05-21T09:30:35.125Z,27.21
2018-05-21T09:31:45.254Z,27.18
2018-05-21T09:32:55.366Z,27.24
2018-05-21T09:34:05.480Z,27.27
2018-05-21T09:35:15.569Z,27.24
2018-05-21T09:36:25.407Z,27.13
2018-05-21T09:37:35.531Z,27.18
2018-05-21T09:38:45.645Z,27.26
2018-05-21T09:39:55.752Z,27.38
2018-05-21T09:41:05.581Z,27.38
2018-05-21T09:42:15.490Z,27.61
2018-05-21T09:43:25.569Z,27.59
2018-05-21T09:44:35.397Z,27.69
2018-05-21T09:45:45.227Z,27.72
2018-05-21T09:46:55.333Z,27.75
2018-05-21T09:48:05.237Z,27.74
2018-05-21T09:49:15.539Z,27.71
2018-05-21T09:50:25.649Z,27.72
2018-05-21T09:51:35.738Z,27.68
2018-05-21T09:52:45.841Z,27.72
2018-05-21T09:53:55.983Z,27.69
2018-05-21T09:55:06.053Z,27.59
2018-05-21T09:56:15.898Z,27.65
2018-05-21T09:57:25.993Z,27.66
2018-05-21T09:58:36.109Z,27.69
2018-05-21T09:59:46.228Z,27.74
2018-05-21T10:00:56.291Z,27.69
2018-05-21T10:02:06.129Z,27.71
2018-05-21T10:03:16.355Z,27.74
2018-05-21T10:04:26.440Z,27.71
2018-05-21T10:05:36.605Z,27.81
2018-05-21T10:06:46.690Z,27.89
2018-05-21T10:07:56.908Z,27.99
2018-05-21T10:09:06.752Z,28.01
2018-05-21T10:10:16.581Z,28.03
2018-05-21T10:11:26.755Z,27.9
2018-05-21T10:12:36.825Z,27.87
2018-05-21T10:13:46.922Z,27.99
2018-05-21T10:14:57.004Z,27.99
2018-05-21T10:16:06.575Z,27.99
2018-05-21T10:17:16.708Z,28.05
2018-05-21T10:18:26.805Z,27.99
2018-05-21T10:19:37.154Z,27.94
2018-05-21T10:20:47.248Z,27.98
2018-05-21T10:21:57.391Z,27.98
2018-05-21T10:23:07.546Z,27.9
2018-05-21T10:24:17.362Z,27.91
2018-05-21T10:25:27.469Z,27.99
2018-05-21T10:26:37.566Z,27.96
2018-05-21T10:27:47.669Z,28.06
2018-05-21T10:28:57.564Z,28.02
2018-05-21T10:30:07.410Z,28.16
2018-05-21T10:31:17.252Z,28.18
2018-05-21T10:32:27.334Z,28.2
2018-05-21T10:33:37.430Z,28.2
2018-05-21T10:34:47.526Z,28.31
2018-05-21T10:35:57.631Z,28.27
2018-05-21T10:37:07.957Z,28.41
2018-05-21T10:38:18.309Z,28.49
2018-05-21T10:39:28.430Z,28.68
2018-05-21T10:40:38.576Z,28.72
2018-05-21T10:41:48.664Z,28.75
2018-05-21T10:42:58.527Z,28.75
2018-05-21T10:44:08.632Z,28.85
2018-05-21T10:45:18.722Z,28.83
2018-05-21T10:46:28.546Z,28.86
2018-05-21T10:47:38.646Z,29.02
2018-05-21T10:48:48.742Z,29.01
2018-05-21T10:49:58.843Z,29.06
2018-05-21T10:51:08.947Z,29.17
2018-05-21T10:52:18.812Z,28.9
2018-05-21T10:53:28.897Z,28.86
2018-05-21T10:54:38.983Z,28.86
2018-05-21T10:55:49.070Z,28.98
2018-05-21T10:56:58.987Z,29.4
2018-05-21T10:58:09.235Z,29.3
2018-05-21T10:59:19.298Z,29.47
2018-05-21T11:00:29.505Z,29.32
2018-05-21T11:01:39.967Z,28.98
2018-05-21T11:02:50.521Z,29.21
2018-05-21T11:04:00.676Z,29.48
2018-05-21T11:05:10.512Z,29.43
2018-05-21T11:06:20.624Z,29.45
2018-05-21T11:07:30.822Z,29.77
2018-05-21T11:08:40.934Z,29.54
2018-05-21T11:09:51.066Z,29.48
2018-05-21T11:11:01.168Z,29.42
2018-05-21T11:12:11.033Z,29.65
2018-05-21T11:13:20.961Z,29.73
2018-05-21T11:14:31.073Z,29.67
2018-05-21T11:15:40.971Z,29.63
2018-05-21T11:16:50.807Z,29.79
2018-05-21T11:18:00.838Z,30.03
2018-05-21T11:19:10.639Z,30.22
2018-05-21T11:20:20.742Z,30.54
2018-05-21T11:21:30.838Z,30.42
2018-05-21T11:22:40.920Z,30.91
2018-05-21T11:23:50.996Z,31.16
2018-05-21T11:25:01.104Z,31.12
2018-05-21T11:26:11.214Z,31.19
2018-05-21T11:27:21.307Z,31.18
2018-05-21T11:28:30.893Z,31.15
2018-05-21T11:29:40.801Z,31.1
2018-05-21T11:30:50.916Z,31.08
2018-05-21T11:32:01.228Z,31.25
2018-05-21T11:33:11.666Z,31.45
2018-05-21T11:34:21.772Z,31.45
2018-05-21T11:35:31.599Z,31.47
2018-05-21T11:36:41.709Z,31.52
2018-05-21T11:37:51.542Z,31.49
2018-05-21T11:39:01.687Z,31.44
2018-05-21T11:40:11.794Z,31.47
2018-05-21T11:41:21.124Z,31.47
2018-05-21T11:42:31.205Z,31.33
2018-05-21T11:43:41.296Z,31.33
2018-05-21T11:44:51.377Z,31.21
2018-05-21T11:46:01.472Z,30.85
2018-05-21T11:47:11.602Z,30.6
2018-05-21T11:48:21.446Z,30.24
2018-05-21T11:49:31.276Z,29.91
2018-05-21T11:50:41.605Z,29.76
2018-05-21T11:51:51.882Z,29.67
2018-05-21T11:53:01.998Z,29.52
2018-05-21T11:54:12.143Z,29.61
2018-05-21T11:55:22.283Z,29.66
2018-05-21T11:56:32.390Z,29.54
2018-05-21T11:57:42.503Z,29.51
2018-05-21T11:58:52.621Z,29.52
2018-05-21T12:00:02.712Z,29.54
2018-05-21T12:01:12.542Z,29.58
2018-05-21T12:02:22.657Z,29.65
2018-05-21T12:03:32.756Z,29.63
2018-05-21T12:04:42.864Z,29.73
2018-05-21T12:05:52.693Z,29.75
2018-05-21T12:07:02.533Z,29.82
2018-05-21T12:08:12.432Z,30.09
2018-05-21T12:09:22.544Z,30.22
2018-05-21T12:10:32.642Z,30.49
2018-05-21T12:11:42.748Z,30.6
2018-05-21T12:12:52.616Z,30.6
2018-05-21T12:14:02.715Z,30.67
2018-05-21T12:15:12.541Z,30.67
2018-05-21T12:16:22.664Z,30.75
2018-05-21T12:17:32.777Z,30.94
2018-05-21T12:18:42.868Z,30.97
2018-05-21T12:19:52.699Z,31.06
2018-05-21T12:21:02.796Z,31.18
2018-05-21T12:22:12.895Z,31.12
2018-05-21T12:23:23.067Z,31.06
2018-05-21T12:24:33.173Z,31.08
2018-05-21T12:25:43.259Z,31.68
2018-05-21T12:26:53.089Z,32.03
2018-05-21T12:28:03.096Z,32.16
2018-05-21T12:29:13.215Z,32
2018-05-21T12:30:23.320Z,31.94
2018-05-21T12:31:33.429Z,31.8
2018-05-21T12:32:43.538Z,31.71
2018-05-21T12:33:53.635Z,31.7
2018-05-21T12:35:03.721Z,31.62
2018-05-21T12:36:13.823Z,31.6
2018-05-21T12:37:23.696Z,31.53
2018-05-21T12:38:33.837Z,31.45
2018-05-21T12:39:44.001Z,31.56
2018-05-21T12:49:15.631Z,31.47
2018-05-21T12:50:25.745Z,31.45
2018-05-21T12:51:35.830Z,31.4
2018-05-21T12:52:45.922Z,31.43
2018-05-21T12:53:55.752Z,31.45
2018-05-21T12:55:05.585Z,31.67
2018-05-21T12:56:15.688Z,31.97
2018-05-21T12:57:25.806Z,32.25
2018-05-21T12:58:35.664Z,32.49
2018-05-21T12:59:45.768Z,32.54
2018-05-21T13:00:55.913Z,32.64
2018-05-21T13:02:05.765Z,32.59
2018-05-21T13:03:15.879Z,32.49
2018-05-21T13:04:25.995Z,32.37
2018-05-21T13:05:36.102Z,32.3
2018-05-21T13:06:46.248Z,32.05
2018-05-21T13:07:56.361Z,31.87
2018-05-21T13:09:06.440Z,31.63
2018-05-21T13:10:16.563Z,31.38
2018-05-21T13:11:26.651Z,31.43
2018-05-21T13:12:36.798Z,31.47
2018-05-21T13:13:46.616Z,31.43
2018-05-21T13:14:56.468Z,31.41
2018-05-21T13:16:06.588Z,31.33
2018-05-21T13:17:16.440Z,31.25
2018-05-21T13:18:26.532Z,31.28
2018-05-21T13:19:36.386Z,31.18
2018-05-21T13:20:46.213Z,31.04
2018-05-21T13:21:56.384Z,30.99
2018-05-21T13:23:06.594Z,30.84
2018-05-21T13:24:17.088Z,30.91
2018-05-21T13:25:27.208Z,31
2018-05-21T13:26:37.313Z,31.23
2018-05-21T13:27:47.412Z,31.43
2018-05-21T13:28:57.522Z,31.52
2018-05-21T13:30:07.613Z,31.62
2018-05-21T13:31:17.702Z,31.81
2018-05-21T13:32:27.781Z,31.86
2018-05-21T13:33:37.625Z,32
2018-05-21T13:34:47.768Z,32.12
2018-05-21T13:35:57.972Z,32.17
2018-05-21T13:37:08.082Z,32.25
2018-05-21T13:38:18.209Z,32.12
2018-05-21T13:39:28.044Z,31.95
2018-05-21T13:40:37.884Z,31.77
2018-05-21T13:41:47.994Z,31.55
2018-05-21T13:42:57.830Z,31.43
2018-05-21T13:44:07.673Z,31.44
2018-05-21T13:45:17.799Z,31.31
2018-05-21T13:46:27.903Z,31.22
2018-05-21T13:47:37.747Z,31.26
2018-05-21T13:48:47.860Z,31.12
2018-05-21T13:49:57.707Z,30.94
2018-05-21T13:51:07.822Z,30.73
2018-05-21T13:52:17.442Z,30.6
2018-05-21T13:53:28.065Z,30.67
2018-05-21T13:54:37.923Z,30.59
2018-05-21T13:55:48.037Z,30.6
2018-05-21T13:56:58.142Z,30.54
2018-05-21T13:58:08.266Z,30.56
2018-05-21T13:59:18.399Z,30.52
2018-05-21T14:00:28.227Z,30.57
2018-05-21T14:01:38.327Z,30.59
2018-05-21T14:02:48.180Z,30.63
2018-05-21T14:03:58.278Z,30.7
2018-05-21T14:05:08.380Z,30.73
2018-05-21T14:06:18.044Z,30.75
2018-05-21T14:07:27.867Z,30.71
2018-05-21T14:08:37.695Z,30.81
2018-05-21T14:09:47.813Z,30.94
2018-05-21T14:10:57.949Z,31.03
2018-05-21T14:12:08.055Z,31.19
2018-05-21T14:13:18.157Z,31.12
2018-05-21T14:14:27.975Z,31.22
2018-05-21T14:15:38.045Z,31.15
2018-05-21T14:16:48.160Z,31.25
2018-05-21T14:17:58.268Z,31.03
2018-05-21T14:19:08.353Z,31.06
2018-05-21T14:20:18.454Z,31.06
2018-05-21T14:21:28.551Z,31.15
2018-05-21T14:22:38.880Z,31.37
2018-05-21T14:23:49.007Z,31.43
2018-05-21T14:24:59.307Z,31.33
2018-05-21T14:26:09.565Z,31.31
2018-05-21T14:27:19.671Z,31.5
2018-05-21T14:28:29.813Z,31.62
2018-05-21T14:29:40.193Z,31.62
2018-05-21T14:30:50.461Z,31.62
2018-05-21T14:32:00.534Z,31.5
2018-05-21T14:33:10.856Z,31.43
2018-05-21T14:34:21.282Z,31.47
2018-05-21T14:35:31.381Z,31.43
2018-05-21T14:36:41.484Z,31.31
2018-05-21T14:37:51.330Z,31.28
2018-05-21T14:39:01.157Z,31.3
2018-05-21T14:40:11.264Z,31
2018-05-21T14:41:21.365Z,31.07
2018-05-21T14:42:31.194Z,30.97
2018-05-21T14:43:41.323Z,30.96
2018-05-21T14:44:51.143Z,30.89
2018-05-21T14:46:01.444Z,30.82
2018-05-21T14:47:11.596Z,30.73
2018-05-21T14:48:21.811Z,30.54
2018-05-21T14:49:31.937Z,30.26
2018-05-21T14:50:42.017Z,30.11
2018-05-21T14:51:51.857Z,30
2018-05-21T14:53:01.935Z,29.88
2018-05-21T14:54:11.776Z,29.85
2018-05-21T14:55:21.622Z,29.79
2018-05-21T14:56:31.463Z,29.84
2018-05-21T14:57:41.570Z,29.84
2018-05-21T14:58:51.393Z,29.88
2018-05-21T15:00:01.497Z,29.89
2018-05-21T15:01:11.590Z,29.91
2018-05-21T15:02:21.411Z,29.92
2018-05-21T15:03:31.581Z,29.88
2018-05-21T15:04:41.666Z,29.92
2018-05-21T15:05:51.750Z,29.92
2018-05-21T15:07:01.594Z,29.97
2018-05-21T15:08:11.693Z,30.02
2018-05-21T15:09:21.782Z,30.04
2018-05-21T15:10:31.885Z,29.98
2018-05-21T15:11:41.973Z,29.92
2018-05-21T15:12:52.083Z,29.87
2018-05-21T15:14:02.160Z,29.77
2018-05-21T15:15:12.000Z,29.79
2018-05-21T15:16:22.074Z,29.72
2018-05-21T15:17:32.163Z,29.66
2018-05-21T15:18:42.247Z,29.67
2018-05-21T15:19:52.346Z,29.54
2018-05-21T15:21:02.453Z,29.5
2018-05-21T15:22:12.330Z,29.43
2018-05-21T15:23:22.611Z,29.3
2018-05-21T15:24:32.423Z,29.17
2018-05-21T15:25:42.552Z,29.18
2018-05-21T15:26:52.712Z,28.97
2018-05-21T15:28:02.538Z,28.95
2018-05-21T15:29:12.637Z,28.85
2018-05-21T15:30:22.723Z,28.88
2018-05-21T15:31:32.568Z,28.86
2018-05-21T15:32:42.725Z,28.7
2018-05-21T15:33:52.286Z,28.7
2018-05-21T15:35:02.386Z,28.64
2018-05-21T15:36:11.984Z,28.57
2018-05-21T15:37:22.187Z,28.54
2018-05-21T15:38:32.327Z,28.54
2018-05-21T15:39:42.440Z,28.58
2018-05-21T15:40:52.513Z,28.55
2018-05-21T15:42:02.354Z,28.53
2018-05-21T15:43:12.454Z,28.53
2018-05-21T15:44:22.305Z,28.51